sensor_id;sensor_type;location;lat;lon;timestamp;temperature;humidity
48912;DHT22;34722;52.108;5.044;2023-03-01T00:01:25;-0.30;99.90
48912;DHT22;34722;52.108;5.044;2023-03-01T00:03:52;-0.30;99.90
48912;DHT22;34722;52.108;5.044;2023-03-01T00:06:20;-0.40;99.90
48912;DHT22;34722;52.108;5.044;2023-03-01T00:08:46;-0.50;99.90
48912;DHT22;34722;52.108;5.044;2023-03-01T00:11:14;-0.40;99.90
48912;DHT22;34722;52.108;5.044;2023-03-01T00:13:41;-0.50;99.90
48912;DHT22;34722;52.108;5.044;2023-03-01T00:16:16;-0.40;99.90
48912;DHT22;34722;52.108;5.044;2023-03-01T00:18:42;-0.40;99.90
48912;DHT22;34722;52.108;5.044;2023-03-01T00:21:08;-0.40;99.90
48912;DHT22;34722;52.108;5.044;2023-03-01T00:23:34;-0.30;99.90
48912;DHT22;34722;52.108;5.044;2023-03-01T00:26:00;-0.40;99.90
48912;DHT22;34722;52.108;5.044;2023-03-01T00:28:26;-0.40;99.90
48912;DHT22;34722;52.108;5.044;2023-03-01T00:30:51;-0.50;99.90
48912;DHT22;34722;52.108;5.044;2023-03-01T00:33:17;-0.50;99.90
48912;DHT22;34722;52.108;5.044;2023-03-01T00:35:44;-0.60;99.90
48912;DHT22;34722;52.108;5.044;2023-03-01T00:38:10;-0.70;99.90
48912;DHT22;34722;52.108;5.044;2023-03-01T00:40:36;-0.70;99.90
48912;DHT22;34722;52.108;5.044;2023-03-01T00:43:02;-0.70;99.90
48912;DHT22;34722;52.108;5.044;2023-03-01T00:45:28;-0.70;99.90
48912;DHT22;34722;52.108;5.044;2023-03-01T00:47:54;-0.70;99.90
48912;DHT22;34722;52.108;5.044;2023-03-01T00:50:20;-0.80;99.90
48912;DHT22;34722;52.108;5.044;2023-03-01T00:52:45;-0.80;99.90
48912;DHT22;34722;52.108;5.044;2023-03-01T00:55:11;-0.90;99.90
48912;DHT22;34722;52.108;5.044;2023-03-01T00:57:37;-0.90;99.90
48912;DHT22;34722;52.108;5.044;2023-03-01T01:00:07;-0.90;99.90
48912;DHT22;34722;52.108;5.044;2023-03-01T01:02:34;-1.00;99.90
48912;DHT22;34722;52.108;5.044;2023-03-01T01:05:00;-1.00;99.90
48912;DHT22;34722;52.108;5.044;2023-03-01T01:07:25;-1.00;99.90
48912;DHT22;34722;52.108;5.044;2023-03-01T01:09:51;-1.10;99.90
48912;DHT22;34722;52.108;5.044;2023-03-01T01:12:17;-1.20;99.90
48912;DHT22;34722;52.108;5.044;2023-03-01T01:14:42;-1.30;99.90
48912;DHT22;34722;52.108;5.044;2023-03-01T01:17:08;-1.30;99.90
48912;DHT22;34722;52.108;5.044;2023-03-01T01:19:34;-1.40;99.90
48912;DHT22;34722;52.108;5.044;2023-03-01T01:21:59;-1.60;99.90
48912;DHT22;34722;52.108;5.044;2023-03-01T01:24:25;-1.70;99.90
48912;DHT22;34722;52.108;5.044;2023-03-01T01:26:50;-1.70;99.90
48912;DHT22;34722;52.108;5.044;2023-03-01T01:29:16;-1.80;99.90
48912;DHT22;34722;52.108;5.044;2023-03-01T01:31:42;-1.90;99.90
48912;DHT22;34722;52.108;5.044;2023-03-01T01:34:13;-1.80;99.90
48912;DHT22;34722;52.108;5.044;2023-03-01T01:36:39;-1.80;99.90
48912;DHT22;34722;52.108;5.044;2023-03-01T01:39:05;-1.90;99.90
48912;DHT22;34722;52.108;5.044;2023-03-01T01:41:30;-2.00;99.90
48912;DHT22;34722;52.108;5.044;2023-03-01T01:47:08;-2.00;99.90
48912;DHT22;34722;52.108;5.044;2023-03-01T01:49:44;-2.00;99.90
48912;DHT22;34722;52.108;5.044;2023-03-01T01:57:36;-2.20;99.90
48912;DHT22;34722;52.108;5.044;2023-03-01T02:00:16;-2.20;99.90
48912;DHT22;34722;52.108;5.044;2023-03-01T02:02:45;-2.20;99.90
48912;DHT22;34722;52.108;5.044;2023-03-01T02:08:02;-2.00;99.90
48912;DHT22;34722;52.108;5.044;2023-03-01T02:10:28;-2.00;99.90
48912;DHT22;34722;52.108;5.044;2023-03-01T02:12:54;-2.10;99.90
48912;DHT22;34722;52.108;5.044;2023-03-01T02:15:22;-2.10;99.90
48912;DHT22;34722;52.108;5.044;2023-03-01T02:17:48;-2.20;99.90
48912;DHT22;34722;52.108;5.044;2023-03-01T02:22:55;-2.10;99.90
48912;DHT22;34722;52.108;5.044;2023-03-01T02:25:32;-2.10;99.90
48912;DHT22;34722;52.108;5.044;2023-03-01T02:30:34;-1.90;99.90
48912;DHT22;34722;52.108;5.044;2023-03-01T02:33:03;-1.90;99.90
48912;DHT22;34722;52.108;5.044;2023-03-01T02:35:39;-1.80;99.90
48912;DHT22;34722;52.108;5.044;2023-03-01T02:38:07;-1.80;99.90
48912;DHT22;34722;52.108;5.044;2023-03-01T02:40:34;-1.80;99.90
48912;DHT22;34722;52.108;5.044;2023-03-01T02:43:02;-1.80;99.90
48912;DHT22;34722;52.108;5.044;2023-03-01T02:45:29;-1.80;99.90
48912;DHT22;34722;52.108;5.044;2023-03-01T02:47:56;-1.80;99.90
48912;DHT22;34722;52.108;5.044;2023-03-01T02:55:28;-1.90;99.90
48912;DHT22;34722;52.108;5.044;2023-03-01T02:57:56;-1.90;99.90
48912;DHT22;34722;52.108;5.044;2023-03-01T03:00:26;-1.90;99.90
48912;DHT22;34722;52.108;5.044;2023-03-01T03:02:53;-2.00;99.90
48912;DHT22;34722;52.108;5.044;2023-03-01T03:05:22;-2.10;99.90
48912;DHT22;34722;52.108;5.044;2023-03-01T03:07:49;-2.10;99.90
48912;DHT22;34722;52.108;5.044;2023-03-01T03:10:25;-2.20;99.90
48912;DHT22;34722;52.108;5.044;2023-03-01T03:13:03;-2.30;99.90
48912;DHT22;34722;52.108;5.044;2023-03-01T03:15:29;-2.30;99.90
48912;DHT22;34722;52.108;5.044;2023-03-01T03:17:57;-2.40;99.90
48912;DHT22;34722;52.108;5.044;2023-03-01T03:20:26;-2.50;99.90
48912;DHT22;34722;52.108;5.044;2023-03-01T03:22:53;-2.50;99.90
48912;DHT22;34722;52.108;5.044;2023-03-01T03:25:21;-2.50;99.90
48912;DHT22;34722;52.108;5.044;2023-03-01T03:27:48;-2.50;99.90
48912;DHT22;34722;52.108;5.044;2023-03-01T03:30:18;-2.50;99.90
48912;DHT22;34722;52.108;5.044;2023-03-01T03:32:47;-2.60;99.90
48912;DHT22;34722;52.108;5.044;2023-03-01T03:35:30;-2.60;99.90
48912;DHT22;34722;52.108;5.044;2023-03-01T03:37:58;-2.70;99.90
48912;DHT22;34722;52.108;5.044;2023-03-01T03:40:29;-2.70;99.90
48912;DHT22;34722;52.108;5.044;2023-03-01T03:42:55;-2.70;99.90
48912;DHT22;34722;52.108;5.044;2023-03-01T03:45:21;-2.80;99.90
48912;DHT22;34722;52.108;5.044;2023-03-01T03:47:47;-2.90;99.90
48912;DHT22;34722;52.108;5.044;2023-03-01T03:50:15;-2.90;99.90
48912;DHT22;34722;52.108;5.044;2023-03-01T03:52:41;-2.90;99.90
48912;DHT22;34722;52.108;5.044;2023-03-01T03:55:08;-2.90;99.90
48912;DHT22;34722;52.108;5.044;2023-03-01T03:57:35;-2.90;99.90
48912;DHT22;34722;52.108;5.044;2023-03-01T04:00:01;-2.90;99.90
48912;DHT22;34722;52.108;5.044;2023-03-01T04:02:29;-3.00;99.90
48912;DHT22;34722;52.108;5.044;2023-03-01T04:04:54;-3.00;99.90
48912;DHT22;34722;52.108;5.044;2023-03-01T04:07:20;-3.00;99.90
48912;DHT22;34722;52.108;5.044;2023-03-01T04:09:46;-3.10;99.90
48912;DHT22;34722;52.108;5.044;2023-03-01T04:12:12;-3.10;99.90
48912;DHT22;34722;52.108;5.044;2023-03-01T04:14:38;-3.10;99.90
48912;DHT22;34722;52.108;5.044;2023-03-01T04:17:03;-3.10;99.90
48912;DHT22;34722;52.108;5.044;2023-03-01T04:19:31;-3.20;99.90
48912;DHT22;34722;52.108;5.044;2023-03-01T04:22:02;-3.20;99.90
48912;DHT22;34722;52.108;5.044;2023-03-01T04:24:37;-3.20;99.90
48912;DHT22;34722;52.108;5.044;2023-03-01T04:27:03;-3.20;99.90
48912;DHT22;34722;52.108;5.044;2023-03-01T04:29:29;-3.20;99.90
48912;DHT22;34722;52.108;5.044;2023-03-01T04:31:55;-3.30;99.90
48912;DHT22;34722;52.108;5.044;2023-03-01T04:34:20;-3.20;99.90
48912;DHT22;34722;52.108;5.044;2023-03-01T04:36:46;-3.20;99.90
48912;DHT22;34722;52.108;5.044;2023-03-01T04:39:12;-3.20;99.90
48912;DHT22;34722;52.108;5.044;2023-03-01T04:41:39;-3.10;99.90
48912;DHT22;34722;52.108;5.044;2023-03-01T04:44:07;-3.10;99.90
48912;DHT22;34722;52.108;5.044;2023-03-01T04:46:35;-3.20;99.90
48912;DHT22;34722;52.108;5.044;2023-03-01T04:49:02;-3.20;99.90
48912;DHT22;34722;52.108;5.044;2023-03-01T04:51:28;-3.20;99.90
48912;DHT22;34722;52.108;5.044;2023-03-01T04:53:54;-3.30;99.90
48912;DHT22;34722;52.108;5.044;2023-03-01T04:56:20;-3.30;99.90
48912;DHT22;34722;52.108;5.044;2023-03-01T04:58:46;-3.20;99.90
48912;DHT22;34722;52.108;5.044;2023-03-01T05:01:16;-3.00;99.90
48912;DHT22;34722;52.108;5.044;2023-03-01T05:03:43;-2.90;99.90
48912;DHT22;34722;52.108;5.044;2023-03-01T05:06:09;-2.90;99.90
48912;DHT22;34722;52.108;5.044;2023-03-01T05:08:37;-2.80;99.90
48912;DHT22;34722;52.108;5.044;2023-03-01T05:11:06;-2.80;99.90
48912;DHT22;34722;52.108;5.044;2023-03-01T05:13:35;-2.70;99.90
48912;DHT22;34722;52.108;5.044;2023-03-01T05:16:10;-2.80;99.90
48912;DHT22;34722;52.108;5.044;2023-03-01T05:18:40;-2.80;99.90
48912;DHT22;34722;52.108;5.044;2023-03-01T05:21:11;-2.90;99.90
48912;DHT22;34722;52.108;5.044;2023-03-01T05:23:37;-2.90;99.90
48912;DHT22;34722;52.108;5.044;2023-03-01T05:26:04;-3.00;99.90
48912;DHT22;34722;52.108;5.044;2023-03-01T05:28:31;-3.10;99.90
48912;DHT22;34722;52.108;5.044;2023-03-01T05:30:58;-3.10;99.90
48912;DHT22;34722;52.108;5.044;2023-03-01T05:33:24;-3.10;99.90
48912;DHT22;34722;52.108;5.044;2023-03-01T05:35:51;-3.00;99.90
48912;DHT22;34722;52.108;5.044;2023-03-01T05:38:20;-3.00;99.90
48912;DHT22;34722;52.108;5.044;2023-03-01T05:40:47;-2.90;99.90
48912;DHT22;34722;52.108;5.044;2023-03-01T05:43:15;-2.90;99.90
48912;DHT22;34722;52.108;5.044;2023-03-01T05:45:41;-2.90;99.90
48912;DHT22;34722;52.108;5.044;2023-03-01T05:48:08;-2.90;99.90
48912;DHT22;34722;52.108;5.044;2023-03-01T05:50:37;-2.80;99.90
48912;DHT22;34722;52.108;5.044;2023-03-01T05:53:06;-2.60;99.90
48912;DHT22;34722;52.108;5.044;2023-03-01T05:55:34;-2.50;99.90
48912;DHT22;34722;52.108;5.044;2023-03-01T05:58:02;-2.40;99.90
48912;DHT22;34722;52.108;5.044;2023-03-01T06:00:29;-2.30;99.90
48912;DHT22;34722;52.108;5.044;2023-03-01T06:02:56;-2.40;99.90
48912;DHT22;34722;52.108;5.044;2023-03-01T06:05:23;-2.50;99.90
48912;DHT22;34722;52.108;5.044;2023-03-01T06:07:49;-2.50;99.90
48912;DHT22;34722;52.108;5.044;2023-03-01T06:10:16;-2.60;99.90
48912;DHT22;34722;52.108;5.044;2023-03-01T06:12:43;-2.60;99.90
48912;DHT22;34722;52.108;5.044;2023-03-01T06:15:11;-2.50;99.90
48912;DHT22;34722;52.108;5.044;2023-03-01T06:17:38;-2.50;99.90
48912;DHT22;34722;52.108;5.044;2023-03-01T06:20:09;-2.40;99.90
48912;DHT22;34722;52.108;5.044;2023-03-01T06:22:35;-2.30;99.90
48912;DHT22;34722;52.108;5.044;2023-03-01T06:25:01;-2.30;99.90
48912;DHT22;34722;52.108;5.044;2023-03-01T06:27:26;-2.30;99.90
48912;DHT22;34722;52.108;5.044;2023-03-01T06:29:52;-2.40;99.90
48912;DHT22;34722;52.108;5.044;2023-03-01T06:32:18;-2.40;99.90
48912;DHT22;34722;52.108;5.044;2023-03-01T06:34:44;-2.40;99.90
48912;DHT22;34722;52.108;5.044;2023-03-01T06:37:09;-2.40;99.90
48912;DHT22;34722;52.108;5.044;2023-03-01T06:39:35;-2.40;99.90
48912;DHT22;34722;52.108;5.044;2023-03-01T06:42:01;-2.40;99.90
48912;DHT22;34722;52.108;5.044;2023-03-01T06:44:27;-2.30;99.90
48912;DHT22;34722;52.108;5.044;2023-03-01T06:46:53;-2.30;99.90
48912;DHT22;34722;52.108;5.044;2023-03-01T06:49:19;-2.30;99.90
48912;DHT22;34722;52.108;5.044;2023-03-01T06:51:45;-2.20;99.90
48912;DHT22;34722;52.108;5.044;2023-03-01T06:54:11;-2.10;99.90
48912;DHT22;34722;52.108;5.044;2023-03-01T06:56:37;-2.10;99.90
48912;DHT22;34722;52.108;5.044;2023-03-01T06:59:03;-2.00;99.90
48912;DHT22;34722;52.108;5.044;2023-03-01T07:01:29;-1.90;99.90
48912;DHT22;34722;52.108;5.044;2023-03-01T07:03:55;-1.90;99.90
48912;DHT22;34722;52.108;5.044;2023-03-01T07:06:22;-1.80;99.90
48912;DHT22;34722;52.108;5.044;2023-03-01T07:08:48;-1.80;99.90
48912;DHT22;34722;52.108;5.044;2023-03-01T07:11:13;-1.60;99.90
48912;DHT22;34722;52.108;5.044;2023-03-01T07:13:39;-1.40;99.90
48912;DHT22;34722;52.108;5.044;2023-03-01T07:16:07;-1.30;99.90
48912;DHT22;34722;52.108;5.044;2023-03-01T07:18:33;-1.10;99.90
48912;DHT22;34722;52.108;5.044;2023-03-01T07:21:03;-1.00;99.90
48912;DHT22;34722;52.108;5.044;2023-03-01T07:23:29;-0.90;99.90
48912;DHT22;34722;52.108;5.044;2023-03-01T07:25:55;-0.80;99.90
48912;DHT22;34722;52.108;5.044;2023-03-01T07:28:23;-0.20;99.90
48912;DHT22;34722;52.108;5.044;2023-03-01T07:31:10;1.90;99.90
48912;DHT22;34722;52.108;5.044;2023-03-01T07:33:36;4.50;99.90
48912;DHT22;34722;52.108;5.044;2023-03-01T07:39:11;7.20;99.90
48912;DHT22;34722;52.108;5.044;2023-03-01T07:41:37;8.00;99.90
48912;DHT22;34722;52.108;5.044;2023-03-01T07:44:03;8.80;99.90
48912;DHT22;34722;52.108;5.044;2023-03-01T07:46:29;9.70;99.90
48912;DHT22;34722;52.108;5.044;2023-03-01T07:48:55;10.30;99.90
48912;DHT22;34722;52.108;5.044;2023-03-01T07:51:21;11.00;99.90
48912;DHT22;34722;52.108;5.044;2023-03-01T07:53:47;11.70;99.90
48912;DHT22;34722;52.108;5.044;2023-03-01T07:56:14;12.20;99.90
48912;DHT22;34722;52.108;5.044;2023-03-01T07:58:44;12.20;99.90
48912;DHT22;34722;52.108;5.044;2023-03-01T08:01:16;12.60;99.90
48912;DHT22;34722;52.108;5.044;2023-03-01T08:03:43;12.70;1.00
48912;DHT22;34722;52.108;5.044;2023-03-01T08:06:11;13.50;99.90
48912;DHT22;34722;52.108;5.044;2023-03-01T10:53:47;13.30;1.00
48912;DHT22;34722;52.108;5.044;2023-03-01T10:56:15;13.80;4.10
48912;DHT22;34722;52.108;5.044;2023-03-01T10:59:03;14.70;10.20
48912;DHT22;34722;52.108;5.044;2023-03-01T11:01:32;15.00;12.10
48912;DHT22;34722;52.108;5.044;2023-03-01T11:06:34;13.70;1.00
48912;DHT22;34722;52.108;5.044;2023-03-01T11:09:29;14.70;3.90
48912;DHT22;34722;52.108;5.044;2023-03-01T11:12:00;14.30;1.00
48912;DHT22;34722;52.108;5.044;2023-03-01T11:14:29;14.90;3.60
48912;DHT22;34722;52.108;5.044;2023-03-01T11:17:23;16.10;9.60
48912;DHT22;34722;52.108;5.044;2023-03-01T11:20:04;16.80;15.50
48912;DHT22;34722;52.108;5.044;2023-03-01T11:22:32;16.20;4.40
48912;DHT22;34722;52.108;5.044;2023-03-01T11:25:00;16.70;9.00
48912;DHT22;34722;52.108;5.044;2023-03-01T11:27:36;16.10;1.00
48912;DHT22;34722;52.108;5.044;2023-03-01T11:30:09;15.20;1.00
48912;DHT22;34722;52.108;5.044;2023-03-01T11:35:35;16.60;1.40
48912;DHT22;34722;52.108;5.044;2023-03-01T11:38:13;17.30;4.10
48912;DHT22;34722;52.108;5.044;2023-03-01T11:43:44;16.30;1.00
48912;DHT22;34722;52.108;5.044;2023-03-01T11:49:45;15.80;1.00
48912;DHT22;34722;52.108;5.044;2023-03-01T12:23:46;15.00;1.00
48912;DHT22;34722;52.108;5.044;2023-03-01T12:26:25;15.50;1.00
48912;DHT22;34722;52.108;5.044;2023-03-01T12:42:01;15.10;1.00
48912;DHT22;34722;52.108;5.044;2023-03-01T12:50:24;15.00;1.00
48912;DHT22;34722;52.108;5.044;2023-03-01T12:52:53;15.70;1.00
48912;DHT22;34722;52.108;5.044;2023-03-01T12:55:29;15.20;1.00
48912;DHT22;34722;52.108;5.044;2023-03-01T13:06:16;11.20;1.00
48912;DHT22;34722;52.108;5.044;2023-03-01T13:11:23;9.60;1.00
48912;DHT22;34722;52.108;5.044;2023-03-01T13:13:49;9.20;1.00
48912;DHT22;34722;52.108;5.044;2023-03-01T13:19:15;8.60;1.00
48912;DHT22;34722;52.108;5.044;2023-03-01T13:21:41;8.40;1.00
48912;DHT22;34722;52.108;5.044;2023-03-01T13:24:24;8.30;1.00
48912;DHT22;34722;52.108;5.044;2023-03-01T13:29:48;8.20;1.00
48912;DHT22;34722;52.108;5.044;2023-03-01T13:32:31;8.30;1.00
48912;DHT22;34722;52.108;5.044;2023-03-01T13:37:44;8.30;1.00
48912;DHT22;34722;52.108;5.044;2023-03-01T13:42:46;8.20;1.00
48912;DHT22;34722;52.108;5.044;2023-03-01T13:45:32;8.20;1.00
48912;DHT22;34722;52.108;5.044;2023-03-01T13:48:01;8.00;1.00
48912;DHT22;34722;52.108;5.044;2023-03-01T13:50:31;7.90;1.00
48912;DHT22;34722;52.108;5.044;2023-03-01T13:53:04;7.90;1.00
48912;DHT22;34722;52.108;5.044;2023-03-01T13:58:26;7.80;1.00
48912;DHT22;34722;52.108;5.044;2023-03-01T14:03:24;7.80;1.00
48912;DHT22;34722;52.108;5.044;2023-03-01T14:06:14;7.80;1.00
48912;DHT22;34722;52.108;5.044;2023-03-01T14:08:45;7.70;1.00
48912;DHT22;34722;52.108;5.044;2023-03-01T14:19:17;7.50;1.00
48912;DHT22;34722;52.108;5.044;2023-03-01T14:21:46;7.60;1.00
48912;DHT22;34722;52.108;5.044;2023-03-01T14:24:18;7.60;1.00
48912;DHT22;34722;52.108;5.044;2023-03-01T14:26:45;7.60;1.00
48912;DHT22;34722;52.108;5.044;2023-03-01T14:29:35;7.50;1.00
48912;DHT22;34722;52.108;5.044;2023-03-01T14:32:24;7.40;1.00
48912;DHT22;34722;52.108;5.044;2023-03-01T14:34:50;7.30;1.00
48912;DHT22;34722;52.108;5.044;2023-03-01T14:37:26;7.30;1.00
48912;DHT22;34722;52.108;5.044;2023-03-01T14:39:53;7.40;1.00
48912;DHT22;34722;52.108;5.044;2023-03-01T14:42:21;7.30;1.00
48912;DHT22;34722;52.108;5.044;2023-03-01T14:44:51;7.30;1.00
48912;DHT22;34722;52.108;5.044;2023-03-01T14:47:32;7.20;1.00
48912;DHT22;34722;52.108;5.044;2023-03-01T14:50:25;7.30;1.00
48912;DHT22;34722;52.108;5.044;2023-03-01T14:52:52;7.30;1.00
48912;DHT22;34722;52.108;5.044;2023-03-01T19:52:24;2.30;1.00
48912;DHT22;34722;52.108;5.044;2023-03-01T19:54:50;2.20;99.90
48912;DHT22;34722;52.108;5.044;2023-03-01T19:57:15;2.20;99.90
48912;DHT22;34722;52.108;5.044;2023-03-01T19:59:41;2.10;99.90
48912;DHT22;34722;52.108;5.044;2023-03-01T20:02:08;2.10;1.00
48912;DHT22;34722;52.108;5.044;2023-03-01T20:04:34;2.30;99.90
48912;DHT22;34722;52.108;5.044;2023-03-01T20:06:59;2.20;1.00
48912;DHT22;34722;52.108;5.044;2023-03-01T20:09:25;2.40;99.90
48912;DHT22;34722;52.108;5.044;2023-03-01T20:11:51;2.40;99.90
48912;DHT22;34722;52.108;5.044;2023-03-01T20:14:17;2.40;99.90
48912;DHT22;34722;52.108;5.044;2023-03-01T20:16:43;2.40;99.90
48912;DHT22;34722;52.108;5.044;2023-03-01T20:19:08;2.30;99.90
48912;DHT22;34722;52.108;5.044;2023-03-01T20:21:34;2.30;99.90
48912;DHT22;34722;52.108;5.044;2023-03-01T20:24:00;2.30;99.90
48912;DHT22;34722;52.108;5.044;2023-03-01T20:26:26;2.20;99.90
48912;DHT22;34722;52.108;5.044;2023-03-01T20:28:54;2.20;99.90
48912;DHT22;34722;52.108;5.044;2023-03-01T20:31:23;2.10;99.90
48912;DHT22;34722;52.108;5.044;2023-03-01T20:33:54;1.90;1.00
48912;DHT22;34722;52.108;5.044;2023-03-01T20:36:20;1.80;1.00
48912;DHT22;34722;52.108;5.044;2023-03-01T20:38:53;1.80;1.00
48912;DHT22;34722;52.108;5.044;2023-03-01T20:41:19;1.80;1.00
48912;DHT22;34722;52.108;5.044;2023-03-01T20:43:45;1.70;1.00
48912;DHT22;34722;52.108;5.044;2023-03-01T20:46:19;1.70;1.00
48912;DHT22;34722;52.108;5.044;2023-03-01T20:48:45;1.60;1.00
48912;DHT22;34722;52.108;5.044;2023-03-01T20:51:11;1.60;1.00
48912;DHT22;34722;52.108;5.044;2023-03-01T20:53:37;1.50;1.00
48912;DHT22;34722;52.108;5.044;2023-03-01T20:56:04;1.50;1.00
48912;DHT22;34722;52.108;5.044;2023-03-01T20:58:31;1.40;15.30
48912;DHT22;34722;52.108;5.044;2023-03-01T21:01:01;1.30;20.50
48912;DHT22;34722;52.108;5.044;2023-03-01T21:03:27;1.30;27.50
48912;DHT22;34722;52.108;5.044;2023-03-01T21:05:57;1.30;39.10
48912;DHT22;34722;52.108;5.044;2023-03-01T21:08:23;1.20;43.60
48912;DHT22;34722;52.108;5.044;2023-03-01T21:10:51;1.20;42.30
48912;DHT22;34722;52.108;5.044;2023-03-01T21:13:16;1.30;40.50
48912;DHT22;34722;52.108;5.044;2023-03-01T21:15:50;1.20;32.80
48912;DHT22;34722;52.108;5.044;2023-03-01T21:18:16;1.30;34.90
48912;DHT22;34722;52.108;5.044;2023-03-01T21:20:41;1.30;28.00
48912;DHT22;34722;52.108;5.044;2023-03-01T21:23:07;1.30;31.60
48912;DHT22;34722;52.108;5.044;2023-03-01T21:25:33;1.40;25.10
48912;DHT22;34722;52.108;5.044;2023-03-01T21:27:59;1.50;17.00
48912;DHT22;34722;52.108;5.044;2023-03-01T21:30:25;1.50;14.50
48912;DHT22;34722;52.108;5.044;2023-03-01T21:32:51;1.50;12.00
48912;DHT22;34722;52.108;5.044;2023-03-01T21:35:16;1.40;17.80
48912;DHT22;34722;52.108;5.044;2023-03-01T21:37:42;1.50;17.20
48912;DHT22;34722;52.108;5.044;2023-03-01T21:40:08;1.50;18.30
48912;DHT22;34722;52.108;5.044;2023-03-01T21:42:35;1.60;15.50
48912;DHT22;34722;52.108;5.044;2023-03-01T21:45:03;1.60;5.60
48912;DHT22;34722;52.108;5.044;2023-03-01T21:47:29;1.60;6.30
48912;DHT22;34722;52.108;5.044;2023-03-01T21:49:55;1.40;7.80
48912;DHT22;34722;52.108;5.044;2023-03-01T21:52:20;1.20;17.30
48912;DHT22;34722;52.108;5.044;2023-03-01T21:54:49;1.10;28.70
48912;DHT22;34722;52.108;5.044;2023-03-01T21:57:15;1.00;44.10
48912;DHT22;34722;52.108;5.044;2023-03-01T21:59:41;1.00;43.10
48912;DHT22;34722;52.108;5.044;2023-03-01T22:02:10;1.00;37.10
48912;DHT22;34722;52.108;5.044;2023-03-01T22:04:38;0.90;49.10
48912;DHT22;34722;52.108;5.044;2023-03-01T22:07:05;0.80;47.10
48912;DHT22;34722;52.108;5.044;2023-03-01T22:09:31;0.70;55.40
48912;DHT22;34722;52.108;5.044;2023-03-01T22:11:59;0.70;69.00
48912;DHT22;34722;52.108;5.044;2023-03-01T22:14:29;0.80;66.90
48912;DHT22;34722;52.108;5.044;2023-03-01T22:16:55;0.90;61.70
48912;DHT22;34722;52.108;5.044;2023-03-01T22:19:22;1.00;62.90
48912;DHT22;34722;52.108;5.044;2023-03-01T22:21:50;0.90;54.10
48912;DHT22;34722;52.108;5.044;2023-03-01T22:24:18;0.90;54.20
48912;DHT22;34722;52.108;5.044;2023-03-01T22:26:45;0.80;56.70
48912;DHT22;34722;52.108;5.044;2023-03-01T22:29:14;0.80;65.00
48912;DHT22;34722;52.108;5.044;2023-03-01T22:31:40;0.90;73.70
48912;DHT22;34722;52.108;5.044;2023-03-01T22:34:07;1.00;65.20
48912;DHT22;34722;52.108;5.044;2023-03-01T22:36:33;1.10;62.10
48912;DHT22;34722;52.108;5.044;2023-03-01T22:38:59;1.20;57.40
48912;DHT22;34722;52.108;5.044;2023-03-01T22:41:32;1.20;56.80
48912;DHT22;34722;52.108;5.044;2023-03-01T22:43:58;1.10;64.30
48912;DHT22;34722;52.108;5.044;2023-03-01T22:46:25;1.10;63.40
48912;DHT22;34722;52.108;5.044;2023-03-01T22:48:51;1.00;77.00
48912;DHT22;34722;52.108;5.044;2023-03-01T22:51:19;1.00;94.50
48912;DHT22;34722;52.108;5.044;2023-03-01T22:53:45;1.10;99.90
48912;DHT22;34722;52.108;5.044;2023-03-01T22:56:22;1.20;99.90
48912;DHT22;34722;52.108;5.044;2023-03-01T22:58:50;1.10;99.90
48912;DHT22;34722;52.108;5.044;2023-03-01T23:01:17;1.20;99.90
48912;DHT22;34722;52.108;5.044;2023-03-01T23:03:44;1.20;99.90
48912;DHT22;34722;52.108;5.044;2023-03-01T23:06:11;1.30;99.90
48912;DHT22;34722;52.108;5.044;2023-03-01T23:08:37;1.30;99.90
48912;DHT22;34722;52.108;5.044;2023-03-01T23:11:07;1.30;99.90
48912;DHT22;34722;52.108;5.044;2023-03-01T23:13:33;1.30;99.90
48912;DHT22;34722;52.108;5.044;2023-03-01T23:15:59;1.30;99.90
48912;DHT22;34722;52.108;5.044;2023-03-01T23:18:25;1.20;99.90
48912;DHT22;34722;52.108;5.044;2023-03-01T23:20:50;1.20;99.90
48912;DHT22;34722;52.108;5.044;2023-03-01T23:23:16;1.30;99.90
48912;DHT22;34722;52.108;5.044;2023-03-01T23:25:52;1.30;99.90
48912;DHT22;34722;52.108;5.044;2023-03-01T23:28:17;1.40;99.90
48912;DHT22;34722;52.108;5.044;2023-03-01T23:30:56;1.40;99.90
48912;DHT22;34722;52.108;5.044;2023-03-01T23:33:21;1.30;99.90
48912;DHT22;34722;52.108;5.044;2023-03-01T23:35:47;1.40;99.90
48912;DHT22;34722;52.108;5.044;2023-03-01T23:38:13;1.40;99.90
48912;DHT22;34722;52.108;5.044;2023-03-01T23:40:38;1.30;99.90
48912;DHT22;34722;52.108;5.044;2023-03-01T23:43:04;1.20;99.90
48912;DHT22;34722;52.108;5.044;2023-03-01T23:45:30;1.30;99.90
48912;DHT22;34722;52.108;5.044;2023-03-01T23:47:56;1.30;99.90
48912;DHT22;34722;52.108;5.044;2023-03-01T23:50:22;1.20;99.90
48912;DHT22;34722;52.108;5.044;2023-03-01T23:52:47;1.20;99.90
48912;DHT22;34722;52.108;5.044;2023-03-01T23:55:14;1.20;99.90
48912;DHT22;34722;52.108;5.044;2023-03-01T23:57:40;1.20;99.90
